Time;durP1;ratioP1;P1;durP2;ratioP2;P2;SDS_P1;SDS_P2;PMS_P1;PMS_P2;Temp;Humidity;BMP_temperature;BMP_pressure;BME280_temperature;BME280_humidity;BME280_pressure;Samples;Min_cycle;Max_cycle;Signal;HPM_P1;HPM_P2
2023/12/27 00:00:47;;;;;;;1.13;1.03;;;;;;;;;;5056351;28;20284;-85
2023/12/27 00:03:35;;;;;;;1.67;1.57;;;;;;;;;;5064118;28;20313;-85
2023/12/27 00:09:24;;;;;;;2.97;1.70;;;;;;;;;;5056946;28;20589;-84
2023/12/27 00:12:19;;;;;;;2.30;1.63;;;;;;;;;;5068016;28;20348;-83
2023/12/27 00:17:54;;;;;;;4.90;1.27;;;;;;;;;;5057172;28;20328;-84
2023/12/27 00:20:24;;;;;;;3.70;1.83;;;;;;;;;;5069995;28;20327;-85
2023/12/27 00:22:56;;;;;;;1.83;1.73;;;;;;;;;;5068035;28;20317;-84
2023/12/27 00:25:31;;;;;;;3.37;1.30;;;;;;;;;;5069737;28;20234;-84
2023/12/27 00:28:20;;;;;;;;;;;;;;;;;;;;;
2023/12/27 00:31:15;;;;;;;4.53;1.87;;;;;;;;;;5070726;28;20233;-84
2023/12/27 00:34:25;;;;;;;1.93;1.83;;;;;;;;;;5063730;28;20230;-84
2023/12/27 00:37:09;;;;;;;;;;;;;;;;;;;;;
2023/12/27 00:39:44;;;;;;;1.20;1.10;;;;;;;;;;5073858;28;20222;-84
2023/12/27 00:42:14;;;;;;;2.60;1.60;;;;;;;;;;5078482;28;20232;-84
2023/12/27 00:45:09;;;;;;;1.87;1.57;;;;;;;;;;5088251;28;20202;-84
2023/12/27 00:48:06;;;;;;;1.63;1.53;;;;;;;;;;5069518;28;20301;-84
2023/12/27 00:50:45;;;;;;;2.70;1.80;;;;;;;;;;5072026;28;20329;-83
2023/12/27 00:53:29;;;;;;;1.43;1.33;;;;;;;;;;5069113;28;20226;-84
2023/12/27 00:56:16;;;;;;;1.50;1.40;;;;;;;;;;5070338;28;20527;-84
2023/12/27 00:59:01;;;;;;;6.00;2.03;;;;;;;;;;5070974;28;20378;-85
2023/12/27 01:01:43;;;;;;;5.47;1.97;;;;;;;;;;5067998;28;20377;-85
2023/12/27 01:10:27;;;;;;;1.63;1.53;;;;;;;;;;5067670;28;20234;-84
2023/12/27 01:15:50;;;;;;;4.03;2.00;;;;;;;;;;5072638;28;20229;-84
2023/12/27 01:21:56;;;;;;;2.00;1.90;;;;;;;;;;5070669;28;20203;-84
2023/12/27 01:24:43;;;;;;;6.27;1.77;;;;;;;;;;5052059;28;20562;-85
2023/12/27 01:28:16;;;;;;;;;;;;;;;;;;;;;
2023/12/27 01:37:20;;;;;;;1.90;1.70;;;;;;;;;;5053472;28;20195;-84
2023/12/27 01:43:04;;;;;;;2.30;1.73;;;;;;;;;;5049901;28;20660;-85
2023/12/27 01:45:43;;;;;;;4.20;2.27;;;;;;;;;;5053557;28;20195;-86
2023/12/27 01:51:14;;;;;;;5.17;1.70;;;;;;;;;;5012222;28;20227;-82
2023/12/27 01:54:01;;;;;;;1.70;1.60;;;;;;;;;;5014279;28;20212;-85
2023/12/27 01:56:46;;;;;;;1.70;1.60;;;;;;;;;;5013456;28;20279;-84
2023/12/27 02:02:21;;;;;;;2.50;2.07;;;;;;;;;;5011213;28;20205;-84
2023/12/27 02:04:52;;;;;;;1.60;1.50;;;;;;;;;;5014193;28;20674;-84
2023/12/27 02:07:31;;;;;;;1.80;1.37;;;;;;;;;;5013606;28;20862;-85
2023/12/27 02:10:22;;;;;;;1.60;1.50;;;;;;;;;;5013372;28;20201;-84
2023/12/27 02:13:23;;;;;;;1.83;1.73;;;;;;;;;;5014194;28;20523;-85
2023/12/27 02:16:10;;;;;;;3.23;1.70;;;;;;;;;;5013558;28;20211;-85
2023/12/27 02:18:56;;;;;;;1.40;1.30;;;;;;;;;;5013605;28;20696;-85
2023/12/27 02:25:11;;;;;;;;;;;;;;;;;;;;;
2023/12/27 02:27:47;;;;;;;1.83;1.73;;;;;;;;;;5012654;28;20755;-85
2023/12/27 02:30:19;;;;;;;3.17;1.87;;;;;;;;;;5012273;28;20496;-85
2023/12/27 02:32:50;;;;;;;4.47;2.13;;;;;;;;;;5014355;28;20235;-85
2023/12/27 02:35:20;;;;;;;6.47;1.90;;;;;;;;;;5014435;28;20208;-85
2023/12/27 02:37:50;;;;;;;2.43;1.87;;;;;;;;;;5021041;28;20323;-84
2023/12/27 02:40:19;;;;;;;2.97;1.77;;;;;;;;;;5030848;28;20199;-83
2023/12/27 02:42:49;;;;;;;4.53;1.87;;;;;;;;;;5031906;28;20224;-83
2023/12/27 02:45:18;;;;;;;1.67;1.30;;;;;;;;;;5032962;28;20246;-82
2023/12/27 02:47:47;;;;;;;5.10;2.03;;;;;;;;;;5029118;28;20228;-85
2023/12/27 02:50:17;;;;;;;4.50;1.83;;;;;;;;;;5047492;28;20227;-84
2023/12/27 02:52:46;;;;;;;3.60;1.57;;;;;;;;;;5053720;28;20234;-84
2023/12/27 02:55:14;;;;;;;4.57;2.00;;;;;;;;;;5052725;28;20203;-83
2023/12/27 02:57:43;;;;;;;5.70;2.67;;;;;;;;;;5053707;28;20191;-86
2023/12/27 03:00:14;;;;;;;6.07;1.87;;;;;;;;;;5054875;28;20191;-84
2023/12/27 03:02:43;;;;;;;1.93;1.83;;;;;;;;;;5053709;28;20758;-84
2023/12/27 03:05:14;;;;;;;3.27;1.50;;;;;;;;;;5053742;28;20203;-84
2023/12/27 03:07:44;;;;;;;2.17;1.97;;;;;;;;;;5053615;28;20262;-84
2023/12/27 03:10:13;;;;;;;4.20;2.10;;;;;;;;;;5054010;28;20237;-84
2023/12/27 03:12:40;;;;;;;1.47;1.43;;;;;;;;;;5060779;28;20263;-85
2023/12/27 03:15:09;;;;;;;7.03;2.00;;;;;;;;;;5070081;28;20202;-84
2023/12/27 03:17:40;;;;;;;1.93;1.80;;;;;;;;;;5062975;28;20191;-85
2023/12/27 03:20:09;;;;;;;3.60;1.60;;;;;;;;;;5069627;28;20195;-86
2023/12/27 03:22:40;;;;;;;3.50;2.33;;;;;;;;;;5061604;28;20667;-84
2023/12/27 03:25:10;;;;;;;7.87;2.50;;;;;;;;;;5053640;28;20233;-84
2023/12/27 03:27:39;;;;;;;3.47;1.90;;;;;;;;;;5055896;28;20230;-84
2023/12/27 03:30:08;;;;;;;3.50;1.80;;;;;;;;;;5052312;28;20203;-84
2023/12/27 03:32:41;;;;;;;3.77;1.77;;;;;;;;;;5053747;28;20294;-84
2023/12/27 03:35:10;;;;;;;1.83;1.70;;;;;;;;;;5053900;28;20199;-83
2023/12/27 03:37:41;;;;;;;3.47;2.10;;;;;;;;;;5060546;28;20245;-85
2023/12/27 03:40:10;;;;;;;5.10;1.90;;;;;;;;;;5063786;28;20204;-84
2023/12/27 03:42:39;;;;;;;2.57;2.37;;;;;;;;;;5074347;28;20203;-83
2023/12/27 03:45:10;;;;;;;1.80;1.70;;;;;;;;;;5064774;28;20395;-85
2023/12/27 03:47:41;;;;;;;2.00;1.90;;;;;;;;;;5051365;28;20269;-88
2023/12/27 03:50:08;;;;;;;2.17;2.00;;;;;;;;;;5051428;28;20263;-85
2023/12/27 03:52:38;;;;;;;4.13;1.77;;;;;;;;;;5052204;28;20266;-85
2023/12/27 03:55:10;;;;;;;5.37;2.27;;;;;;;;;;5052034;28;20211;-85
2023/12/27 03:57:40;;;;;;;2.67;1.73;;;;;;;;;;5051158;28;20196;-85
2023/12/27 04:00:13;;;;;;;5.00;1.97;;;;;;;;;;5051354;28;20200;-85
2023/12/27 04:02:42;;;;;;;8.10;1.87;;;;;;;;;;5051885;28;20558;-85
2023/12/27 04:05:10;;;;;;;4.20;2.60;;;;;;;;;;5049786;28;20203;-85
2023/12/27 04:07:41;;;;;;;6.33;2.17;;;;;;;;;;5051511;28;20223;-85
2023/12/27 04:10:08;;;;;;;4.97;1.73;;;;;;;;;;5051498;28;20203;-85
2023/12/27 04:12:38;;;;;;;3.70;2.30;;;;;;;;;;5051366;28;20761;-86
2023/12/27 04:15:10;;;;;;;2.27;2.07;;;;;;;;;;5051749;28;20211;-85
2023/12/27 04:17:40;;;;;;;3.13;2.30;;;;;;;;;;5051759;28;20206;-85
2023/12/27 04:20:10;;;;;;;2.37;1.77;;;;;;;;;;5051586;28;20226;-84
2023/12/27 04:22:41;;;;;;;6.70;2.37;;;;;;;;;;5051727;28;20231;-84
2023/12/27 04:25:14;;;;;;;1.70;1.60;;;;;;;;;;5051879;28;20238;-84
2023/12/27 04:27:45;;;;;;;5.30;2.40;;;;;;;;;;5050495;28;20273;-83
2023/12/27 04:30:16;;;;;;;5.13;2.57;;;;;;;;;;5051169;28;20630;-84
2023/12/27 04:32:46;;;;;;;3.10;2.27;;;;;;;;;;5051458;28;20243;-84
2023/12/27 04:35:16;;;;;;;1.87;1.77;;;;;;;;;;5050349;28;20206;-84
2023/12/27 04:37:44;;;;;;;2.37;1.93;;;;;;;;;;5051491;28;20207;-85
2023/12/27 04:40:14;;;;;;;2.00;1.90;;;;;;;;;;5050970;28;20230;-84
2023/12/27 04:42:44;;;;;;;3.57;2.23;;;;;;;;;;5050768;28;20290;-84
2023/12/27 04:45:12;;;;;;;3.93;2.03;;;;;;;;;;5050691;28;20696;-85
2023/12/27 04:47:42;;;;;;;10.53;2.07;;;;;;;;;;5050649;28;20242;-84
2023/12/27 04:50:11;;;;;;;2.73;2.07;;;;;;;;;;5053424;28;20227;-85
2023/12/27 04:52:42;;;;;;;4.63;2.47;;;;;;;;;;5060453;28;20207;-84
2023/12/27 04:55:11;;;;;;;19.70;6.00;;;;;;;;;;5063952;28;20222;-87
2023/12/27 04:57:42;;;;;;;13.33;9.23;;;;;;;;;;5057056;28;20199;-84
2023/12/27 05:00:11;;;;;;;28.83;14.47;;;;;;;;;;5051942;28;20195;-85
2023/12/27 05:02:38;;;;;;;6.20;5.57;;;;;;;;;;5050589;28;20199;-85
2023/12/27 05:05:08;;;;;;;12.20;7.10;;;;;;;;;;5049502;28;20198;-85
2023/12/27 05:07:38;;;;;;;4.93;3.50;;;;;;;;;;5051332;28;20249;-85
2023/12/27 05:10:11;;;;;;;3.23;2.93;;;;;;;;;;5051742;28;20206;-85
2023/12/27 05:12:40;;;;;;;5.33;4.50;;;;;;;;;;5051563;28;20211;-85
2023/12/27 05:15:09;;;;;;;5.53;3.27;;;;;;;;;;5051159;28;20349;-85
2023/12/27 05:17:41;;;;;;;4.17;3.87;;;;;;;;;;5051577;28;20205;-85
2023/12/27 05:20:11;;;;;;;2.87;2.70;;;;;;;;;;5051022;28;20218;-85
2023/12/27 05:22:41;;;;;;;10.60;5.50;;;;;;;;;;5052030;28;20645;-85
2023/12/27 05:25:11;;;;;;;4.53;2.90;;;;;;;;;;5050876;28;20203;-84
2023/12/27 05:27:41;;;;;;;4.87;4.20;;;;;;;;;;5051641;28;20319;-84
2023/12/27 05:30:09;;;;;;;3.70;3.37;;;;;;;;;;5051082;28;20199;-85
2023/12/27 05:32:38;;;;;;;4.60;3.60;;;;;;;;;;5050418;28;20242;-84
2023/12/27 05:35:08;;;;;;;8.03;4.37;;;;;;;;;;5051141;28;20687;-85
2023/12/27 05:37:37;;;;;;;10.80;6.27;;;;;;;;;;5050594;28;20191;-84
2023/12/27 05:40:09;;;;;;;13.00;4.77;;;;;;;;;;5051481;28;20218;-85
2023/12/27 05:42:42;;;;;;;8.30;3.57;;;;;;;;;;5050552;28;20200;-84
2023/12/27 05:45:14;;;;;;;10.23;6.43;;;;;;;;;;5051030;28;20241;-85
2023/12/27 05:47:43;;;;;;;7.53;4.80;;;;;;;;;;5051131;28;20234;-85
2023/12/27 05:50:15;;;;;;;7.07;4.60;;;;;;;;;;5050539;28;20293;-84
2023/12/27 05:52:45;;;;;;;10.03;5.20;;;;;;;;;;5050484;28;20584;-85
2023/12/27 05:55:16;;;;;;;4.87;4.20;;;;;;;;;;5050243;28;20199;-85
2023/12/27 05:57:47;;;;;;;3.90;3.60;;;;;;;;;;5049596;28;20648;-84
2023/12/27 06:00:17;;;;;;;4.13;2.97;;;;;;;;;;5052187;28;20226;-84
2023/12/27 06:02:47;;;;;;;8.30;5.33;;;;;;;;;;5053791;28;20234;-84
2023/12/27 06:05:16;;;;;;;3.27;2.97;;;;;;;;;;5053723;28;20257;-84
2023/12/27 06:07:46;;;;;;;5.50;2.40;;;;;;;;;;5062043;28;20226;-85
2023/12/27 06:10:16;;;;;;;2.67;2.47;;;;;;;;;;5067456;28;20231;-84
2023/12/27 06:12:45;;;;;;;11.37;3.87;;;;;;;;;;5073563;28;20210;-86
2023/12/27 06:15:15;;;;;;;4.10;2.50;;;;;;;;;;5072064;28;20206;-85
2023/12/27 06:17:43;;;;;;;3.10;2.80;;;;;;;;;;5073954;28;20260;-85
2023/12/27 06:20:12;;;;;;;2.10;1.90;;;;;;;;;;5072813;28;20199;-85
2023/12/27 06:22:43;;;;;;;2.60;2.47;;;;;;;;;;5073580;28;20715;-85
2023/12/27 06:25:14;;;;;;;3.07;2.83;;;;;;;;;;5072730;28;20738;-84
2023/12/27 06:27:44;;;;;;;2.40;2.20;;;;;;;;;;5073108;28;20764;-84
2023/12/27 06:30:15;;;;;;;4.17;2.60;;;;;;;;;;5074907;28;20195;-83
2023/12/27 06:32:50;;;;;;;3.33;2.90;;;;;;;;;;5076171;28;20730;-83
2023/12/27 06:35:20;;;;;;;4.20;3.30;;;;;;;;;;5072880;28;20201;-84
2023/12/27 06:37:51;;;;;;;4.40;3.03;;;;;;;;;;5073128;28;20659;-84
2023/12/27 06:40:21;;;;;;;3.57;3.27;;;;;;;;;;5074897;28;20213;-83
2023/12/27 06:42:50;;;;;;;3.13;2.90;;;;;;;;;;5072566;28;20199;-86
2023/12/27 06:45:21;;;;;;;6.87;4.30;;;;;;;;;;5073065;28;20503;-84
2023/12/27 06:47:51;;;;;;;5.50;4.53;;;;;;;;;;5072121;28;20225;-84
2023/12/27 06:50:23;;;;;;;5.60;2.57;;;;;;;;;;5072551;28;20246;-84
2023/12/27 06:52:57;;;;;;;7.13;2.40;;;;;;;;;;5073289;28;20195;-86
2023/12/27 06:55:25;;;;;;;3.20;2.53;;;;;;;;;;5071716;28;20626;-84
2023/12/27 06:57:53;;;;;;;3.10;2.90;;;;;;;;;;5070978;28;20199;-84
2023/12/27 07:00:38;;;;;;;4.73;3.10;;;;;;;;;;5072157;28;20214;-85
2023/12/27 07:03:08;;;;;;;3.00;2.80;;;;;;;;;;5072843;28;20207;-86
2023/12/27 07:05:37;;;;;;;6.37;2.93;;;;;;;;;;5076703;28;20207;-84
2023/12/27 07:08:12;;;;;;;4.70;3.20;;;;;;;;;;5087589;28;20224;-83
2023/12/27 07:10:40;;;;;;;2.90;2.67;;;;;;;;;;5078019;28;20278;-84
2023/12/27 07:13:12;;;;;;;5.60;3.13;;;;;;;;;;5071579;28;20266;-83
2023/12/27 07:15:40;;;;;;;3.10;2.77;;;;;;;;;;5074677;28;20567;-84
2023/12/27 07:18:11;;;;;;;2.83;2.50;;;;;;;;;;5073888;28;20576;-86
2023/12/27 07:20:42;;;;;;;2.80;2.60;;;;;;;;;;5072771;28;20200;-84
2023/12/27 07:23:11;;;;;;;3.17;3.07;;;;;;;;;;5072231;28;20191;-85
2023/12/27 07:25:39;;;;;;;5.07;3.40;;;;;;;;;;5070873;28;20630;-84
2023/12/27 07:28:07;;;;;;;6.57;2.97;;;;;;;;;;5071011;28;20248;-85
2023/12/27 07:30:36;;;;;;;3.93;3.27;;;;;;;;;;5071126;28;20270;-85
2023/12/27 07:33:05;;;;;;;5.97;3.07;;;;;;;;;;5070402;28;20318;-84
2023/12/27 07:35:37;;;;;;;6.20;2.47;;;;;;;;;;5072046;28;20277;-84
2023/12/27 07:38:07;;;;;;;3.37;2.73;;;;;;;;;;5071269;28;20296;-83
2023/12/27 07:40:37;;;;;;;4.10;2.40;;;;;;;;;;5069813;28;20200;-84
2023/12/27 07:43:06;;;;;;;3.50;3.13;;;;;;;;;;5070823;28;20292;-84
2023/12/27 07:45:36;;;;;;;7.90;3.13;;;;;;;;;;5070363;28;20227;-85
2023/12/27 07:48:06;;;;;;;3.03;2.72;;;;;;;;;;5070800;28;20236;-84
2023/12/27 07:50:37;;;;;;;6.20;5.65;;;;;;;;;;5070729;28;20242;-83
2023/12/27 07:53:08;;;;;;;4.00;3.60;;;;;;;;;;5071329;28;20645;-85
2023/12/27 07:55:38;;;;;;;2.88;2.25;;;;;;;;;;5069511;28;20210;-84
2023/12/27 07:58:12;;;;;;;3.17;2.85;;;;;;;;;;5070838;28;20571;-84
2023/12/27 08:00:43;;;;;;;4.18;2.55;;;;;;;;;;5069259;28;20200;-86
2023/12/27 08:03:12;;;;;;;5.97;2.45;;;;;;;;;;5070227;28;20202;-86
2023/12/27 08:05:42;;;;;;;3.65;3.33;;;;;;;;;;5072068;28;20214;-86
2023/12/27 08:08:13;;;;;;;6.18;4.20;;;;;;;;;;5085384;28;20207;-81
2023/12/27 08:10:45;;;;;;;2.47;2.28;;;;;;;;;;5087658;28;20201;-82
2023/12/27 08:13:14;;;;;;;14.23;5.95;;;;;;;;;;5087324;28;20205;-86
2023/12/27 08:15:42;;;;;;;6.68;4.05;;;;;;;;;;5089374;28;20216;-83
2023/12/27 08:18:11;;;;;;;4.38;3.80;;;;;;;;;;5086091;28;20198;-83
2023/12/27 08:20:39;;;;;;;5.97;3.00;;;;;;;;;;5071831;28;20585;-85
2023/12/27 08:23:08;;;;;;;2.92;2.55;;;;;;;;;;5071682;28;20649;-83
2023/12/27 08:25:38;;;;;;;2.03;1.92;;;;;;;;;;5070045;28;20213;-84
2023/12/27 08:28:08;;;;;;;4.32;2.92;;;;;;;;;;5070890;28;20456;-84
2023/12/27 08:30:36;;;;;;;19.33;11.65;;;;;;;;;;5070388;28;20201;-85
2023/12/27 08:33:06;;;;;;;4.72;4.25;;;;;;;;;;5069971;28;20223;-86
2023/12/27 08:35:34;;;;;;;2.25;2.10;;;;;;;;;;5070050;28;20211;-84
2023/12/27 08:38:06;;;;;;;6.22;1.88;;;;;;;;;;5079053;28;20220;-84
2023/12/27 08:40:36;;;;;;;4.13;2.22;;;;;;;;;;5077898;28;20211;-85
2023/12/27 08:43:12;;;;;;;3.38;2.10;;;;;;;;;;5072301;28;20267;-84
2023/12/27 08:45:43;;;;;;;4.32;1.63;;;;;;;;;;5070441;28;20198;-84
2023/12/27 08:48:12;;;;;;;2.55;2.17;;;;;;;;;;5068640;28;20322;-85
2023/12/27 08:50:43;;;;;;;3.85;2.38;;;;;;;;;;5068460;28;20249;-85
2023/12/27 08:53:12;;;;;;;3.90;2.50;;;;;;;;;;5070516;28;20513;-85
2023/12/27 08:55:53;;;;;;;2.38;2.17;;;;;;;;;;5069886;28;20586;-87
2023/12/27 08:58:25;;;;;;;2.30;2.10;;;;;;;;;;5068827;28;20318;-84
2023/12/27 09:01:07;;;;;;;20.73;3.70;;;;;;;;;;5071979;28;20258;-84
2023/12/27 09:03:45;;;;;;;5.43;2.47;;;;;;;;;;5071747;28;20201;-84
2023/12/27 09:06:21;;;;;;;2.38;1.90;;;;;;;;;;5071133;28;20194;-85
2023/12/27 09:08:50;;;;;;;4.47;2.00;;;;;;;;;;5069303;28;20288;-84
2023/12/27 09:11:29;;;;;;;3.83;1.83;;;;;;;;;;5069799;28;20198;-83
2023/12/27 09:14:01;;;;;;;2.63;1.70;;;;;;;;;;5067552;28;20257;-86
2023/12/27 09:16:29;;;;;;;2.78;2.00;;;;;;;;;;5069290;28;20237;-85
2023/12/27 09:18:59;;;;;;;11.10;3.30;;;;;;;;;;5070247;28;20201;-86
2023/12/27 09:21:28;;;;;;;5.70;2.28;;;;;;;;;;5072818;28;20201;-84
2023/12/27 09:23:58;;;;;;;2.97;2.50;;;;;;;;;;5070884;28;20633;-84
2023/12/27 09:26:30;;;;;;;4.47;2.42;;;;;;;;;;5081436;28;20202;-83
2023/12/27 09:28:59;;;;;;;2.65;2.45;;;;;;;;;;5084780;28;20250;-86
2023/12/27 09:31:30;;;;;;;4.13;1.98;;;;;;;;;;5069168;28;20426;-84
2023/12/27 09:34:00;;;;;;;2.78;2.42;;;;;;;;;;5069922;28;20213;-84
2023/12/27 09:36:28;;;;;;;2.78;1.88;;;;;;;;;;5073240;28;20652;-85
2023/12/27 09:38:57;;;;;;;4.22;1.85;;;;;;;;;;5068901;28;20699;-86
2023/12/27 09:41:26;;;;;;;2.83;1.63;;;;;;;;;;5072994;28;20261;-84
2023/12/27 09:43:55;;;;;;;2.53;2.13;;;;;;;;;;5072842;28;20304;-85
2023/12/27 09:46:25;;;;;;;2.97;1.88;;;;;;;;;;5071996;28;20540;-83
2023/12/27 09:48:55;;;;;;;1.83;1.73;;;;;;;;;;5072569;28;20312;-84
2023/12/27 09:51:23;;;;;;;2.60;2.08;;;;;;;;;;5072605;28;20658;-84
2023/12/27 09:53:55;;;;;;;2.88;2.60;;;;;;;;;;5072364;28;20753;-85
2023/12/27 09:56:25;;;;;;;2.63;2.28;;;;;;;;;;5073242;28;20227;-85
2023/12/27 09:58:57;;;;;;;3.75;2.03;;;;;;;;;;5071829;28;20203;-85
2023/12/27 10:01:31;;;;;;;2.83;2.33;;;;;;;;;;5071777;28;20217;-85
2023/12/27 10:04:03;;;;;;;1.92;1.83;;;;;;;;;;5072789;28;20265;-84
2023/12/27 10:06:38;;;;;;;1.90;1.80;;;;;;;;;;5071640;28;20209;-85
2023/12/27 10:09:06;;;;;;;1.80;1.70;;;;;;;;;;5071522;28;20219;-85
2023/12/27 10:11:35;;;;;;;2.38;2.03;;;;;;;;;;5071592;28;20203;-85
2023/12/27 10:14:05;;;;;;;1.92;1.77;;;;;;;;;;5071723;28;20217;-85
2023/12/27 10:16:36;;;;;;;2.13;1.45;;;;;;;;;;5071448;28;20193;-85
2023/12/27 10:19:04;;;;;;;1.88;1.30;;;;;;;;;;5071574;28;20206;-82
2023/12/27 10:21:40;;;;;;;1.90;1.80;;;;;;;;;;5070940;28;20613;-84
2023/12/27 10:24:11;;;;;;;1.83;1.58;;;;;;;;;;5065222;28;20233;-85
2023/12/27 10:26:39;;;;;;;1.92;1.60;;;;;;;;;;5071422;28;20292;-84
2023/12/27 10:29:10;;;;;;;2.65;1.55;;;;;;;;;;5069937;28;20313;-87
2023/12/27 10:31:39;;;;;;;2.47;1.42;;;;;;;;;;5071843;28;20197;-85
2023/12/27 10:34:11;;;;;;;2.35;1.70;;;;;;;;;;5071761;28;20277;-85
2023/12/27 10:36:42;;;;;;;1.85;1.60;;;;;;;;;;5071548;28;20260;-85
2023/12/27 10:39:12;;;;;;;1.48;1.35;;;;;;;;;;5073166;28;20202;-85
2023/12/27 10:41:42;;;;;;;5.40;1.77;;;;;;;;;;5072073;28;20198;-83
2023/12/27 10:44:11;;;;;;;1.75;1.65;;;;;;;;;;5069770;28;20210;-84
2023/12/27 10:46:43;;;;;;;3.22;2.22;;;;;;;;;;5071359;28;20646;-84
2023/12/27 10:49:16;;;;;;;2.58;1.80;;;;;;;;;;5071407;28;20722;-84
2023/12/27 10:51:45;;;;;;;2.63;2.03;;;;;;;;;;5069880;28;20198;-84
2023/12/27 10:54:14;;;;;;;1.90;1.80;;;;;;;;;;5071846;28;20197;-85
2023/12/27 10:56:44;;;;;;;2.90;1.85;;;;;;;;;;5071355;28;20209;-85
2023/12/27 10:59:14;;;;;;;7.53;1.85;;;;;;;;;;5070833;28;20210;-85
2023/12/27 11:01:45;;;;;;;2.58;2.38;;;;;;;;;;5070828;28;20201;-84
2023/12/27 11:04:15;;;;;;;3.67;1.60;;;;;;;;;;5071295;28;20627;-87
2023/12/27 11:06:43;;;;;;;1.85;1.73;;;;;;;;;;5071100;28;20213;-85
2023/12/27 11:09:15;;;;;;;1.80;1.70;;;;;;;;;;5071694;28;20228;-85
2023/12/27 11:11:45;;;;;;;2.40;2.20;;;;;;;;;;5071018;28;20276;-85
2023/12/27 11:14:19;;;;;;;3.47;2.33;;;;;;;;;;5070824;28;20727;-84
2023/12/27 11:16:50;;;;;;;2.22;2.03;;;;;;;;;;5066853;28;20209;-84
2023/12/27 11:19:19;;;;;;;3.92;2.17;;;;;;;;;;5070638;28;20318;-86
2023/12/27 11:21:48;;;;;;;2.25;2.13;;;;;;;;;;5069835;28;20296;-85
2023/12/27 11:24:18;;;;;;;1.77;1.63;;;;;;;;;;5073465;28;20294;-84
2023/12/27 11:26:50;;;;;;;3.00;1.90;;;;;;;;;;5071898;28;20217;-86
2023/12/27 11:29:22;;;;;;;4.13;1.58;;;;;;;;;;5072332;28;20235;-86
2023/12/27 11:31:54;;;;;;;3.72;1.48;;;;;;;;;;5072381;28;20271;-84
2023/12/27 11:34:28;;;;;;;4.07;3.67;;;;;;;;;;5074214;28;20224;-85
2023/12/27 11:37:00;;;;;;;3.60;2.13;;;;;;;;;;5067400;28;20196;-85
2023/12/27 11:39:31;;;;;;;3.30;1.98;;;;;;;;;;5073918;28;20221;-85
2023/12/27 11:42:02;;;;;;;2.10;1.65;;;;;;;;;;5073662;28;20204;-84
2023/12/27 11:44:38;;;;;;;2.37;1.80;;;;;;;;;;5077295;28;20198;-84
2023/12/27 11:47:13;;;;;;;2.63;1.83;;;;;;;;;;5080171;28;20214;-85
2023/12/27 11:50:07;;;;;;;6.53;1.80;;;;;;;;;;5056246;28;20622;-84
2023/12/27 11:52:39;;;;;;;2.80;2.47;;;;;;;;;;5057000;28;20672;-86
2023/12/27 11:55:18;;;;;;;7.00;2.17;;;;;;;;;;5075080;28;20669;-86
2023/12/27 11:57:48;;;;;;;5.40;2.37;;;;;;;;;;5069319;28;20453;-84
2023/12/27 12:00:25;;;;;;;2.67;2.10;;;;;;;;;;5061021;28;20225;-85
2023/12/27 12:02:58;;;;;;;4.00;2.67;;;;;;;;;;5073865;28;20664;-85
2023/12/27 12:05:30;;;;;;;3.00;1.87;;;;;;;;;;5073950;28;20213;-83
2023/12/27 12:08:03;;;;;;;3.00;1.80;;;;;;;;;;5073320;28;20629;-85
2023/12/27 12:10:35;;;;;;;3.57;2.03;;;;;;;;;;5073520;28;20285;-84
2023/12/27 12:13:05;;;;;;;2.13;1.90;;;;;;;;;;5074481;28;20244;-85
2023/12/27 12:15:39;;;;;;;3.73;1.90;;;;;;;;;;5082729;28;20233;-85
2023/12/27 12:18:09;;;;;;;3.53;2.00;;;;;;;;;;5068900;28;20591;-84
2023/12/27 12:20:38;;;;;;;1.87;1.77;;;;;;;;;;5067022;28;20310;-86
2023/12/27 12:25:27;;;;;;;1.77;1.60;;;;;;;;;;5137839;27;20561;-85
2023/12/27 12:27:59;;;;;;;1.90;1.80;;;;;;;;;;5126461;28;20359;-84
2023/12/27 12:30:33;;;;;;;3.33;1.97;;;;;;;;;;5115839;28;20694;-85
2023/12/27 12:33:02;;;;;;;3.30;1.73;;;;;;;;;;5116121;28;20243;-83
2023/12/27 12:35:42;;;;;;;1.53;1.40;;;;;;;;;;5123441;28;20207;-84
2023/12/27 12:38:17;;;;;;;6.30;2.37;;;;;;;;;;5131234;28;20185;-84
2023/12/27 12:40:49;;;;;;;2.20;1.60;;;;;;;;;;5125730;28;21286;-85
2023/12/27 12:43:21;;;;;;;1.50;1.40;;;;;;;;;;5104246;28;20227;-84
2023/12/27 12:45:52;;;;;;;2.40;2.20;;;;;;;;;;5098929;28;20635;-86
2023/12/27 12:48:23;;;;;;;2.23;2.10;;;;;;;;;;5123847;28;20189;-83
2023/12/27 12:51:15;;;;;;;2.40;2.20;;;;;;;;;;5113644;28;20194;-83
2023/12/27 12:53:46;;;;;;;3.10;2.37;;;;;;;;;;5116641;28;20228;-85
2023/12/27 12:56:16;;;;;;;3.57;2.13;;;;;;;;;;5116107;28;20273;-85
2023/12/27 12:58:50;;;;;;;5.80;2.53;;;;;;;;;;5119214;28;20201;-85
2023/12/27 13:01:20;;;;;;;3.37;3.07;;;;;;;;;;5112021;28;20264;-84
2023/12/27 13:06:32;;;;;;;3.00;2.57;;;;;;;;;;5594713;22;20248;-82
2023/12/27 13:09:03;;;;;;;5.13;1.87;;;;;;;;;;5047253;28;20229;-83
2023/12/27 13:11:45;;;;;;;1.50;1.40;;;;;;;;;;5062538;28;20303;-82
2023/12/27 13:14:24;;;;;;;2.00;1.73;;;;;;;;;;5051597;28;20216;-84
2023/12/27 13:17:10;;;;;;;6.77;1.83;;;;;;;;;;5061217;28;20205;-84
2023/12/27 13:19:41;;;;;;;1.93;1.80;;;;;;;;;;5048461;28;20255;-85
2023/12/27 13:22:10;;;;;;;4.07;2.50;;;;;;;;;;5048915;28;20228;-84
2023/12/27 13:24:39;;;;;;;7.20;2.03;;;;;;;;;;5042342;28;20241;-85
2023/12/27 13:27:09;;;;;;;4.93;2.23;;;;;;;;;;5043440;28;20206;-88
2023/12/27 13:29:42;;;;;;;4.23;2.30;;;;;;;;;;5050698;28;20175;-86
2023/12/27 13:32:14;;;;;;;6.10;2.70;;;;;;;;;;5053976;28;20246;-85
2023/12/27 13:34:43;;;;;;;2.57;2.37;;;;;;;;;;5054690;28;20222;-87
2023/12/27 13:37:14;;;;;;;3.53;2.90;;;;;;;;;;5044024;28;20204;-85
2023/12/27 13:39:55;;;;;;;3.30;2.50;;;;;;;;;;5044402;28;20409;-85
2023/12/27 13:42:30;;;;;;;3.03;2.60;;;;;;;;;;5063368;28;20183;-84
2023/12/27 13:45:12;;;;;;;5.23;3.93;;;;;;;;;;5046372;28;20206;-85
2023/12/27 13:47:41;;;;;;;4.53;3.23;;;;;;;;;;5043156;28;20201;-86
2023/12/27 13:50:11;;;;;;;3.53;3.23;;;;;;;;;;5038774;28;20226;-84
2023/12/27 13:52:40;;;;;;;5.20;3.17;;;;;;;;;;5047450;28;20283;-85
2023/12/27 13:55:10;;;;;;;5.87;3.43;;;;;;;;;;5041656;28;20262;-85
2023/12/27 13:57:38;;;;;;;3.80;3.47;;;;;;;;;;5054557;28;20246;-85
2023/12/27 14:00:09;;;;;;;4.77;3.17;;;;;;;;;;5036607;28;20649;-85
2023/12/27 14:02:37;;;;;;;3.50;3.27;;;;;;;;;;5035981;28;20255;-84
2023/12/27 14:05:05;;;;;;;5.83;3.57;;;;;;;;;;5036954;28;20200;-85
2023/12/27 14:07:35;;;;;;;6.87;3.90;;;;;;;;;;5036381;28;20240;-85
2023/12/27 14:10:05;;;;;;;7.57;5.07;;;;;;;;;;5039669;28;20203;-85
2023/12/27 14:12:42;;;;;;;8.00;5.27;;;;;;;;;;5040108;28;20187;-85
2023/12/27 14:15:12;;;;;;;6.50;4.50;;;;;;;;;;5032834;28;20255;-85
2023/12/27 14:17:42;;;;;;;11.40;5.93;;;;;;;;;;5050953;28;20261;-85
2023/12/27 14:20:12;;;;;;;14.63;6.23;;;;;;;;;;5037082;28;20204;-84
2023/12/27 14:22:40;;;;;;;13.30;7.33;;;;;;;;;;5027346;28;20206;-84
2023/12/27 14:25:09;;;;;;;13.17;6.83;;;;;;;;;;5032509;28;20214;-86
2023/12/27 14:27:50;;;;;;;10.60;6.50;;;;;;;;;;5035610;28;20204;-85
2023/12/27 14:30:34;;;;;;;11.40;7.10;;;;;;;;;;5035084;28;20214;-84
2023/12/27 14:33:06;;;;;;;11.17;5.47;;;;;;;;;;5031822;28;20306;-84
2023/12/27 14:35:35;;;;;;;3.73;3.40;;;;;;;;;;5034447;28;20248;-86
2023/12/27 14:38:02;;;;;;;6.50;2.93;;;;;;;;;;5031737;28;20242;-85
2023/12/27 14:40:33;;;;;;;3.37;2.40;;;;;;;;;;5031160;28;20223;-85
2023/12/27 14:43:01;;;;;;;4.43;3.37;;;;;;;;;;5030522;28;20655;-85
2023/12/27 14:45:29;;;;;;;3.37;3.17;;;;;;;;;;5029240;28;20200;-85
2023/12/27 14:47:58;;;;;;;14.33;8.77;;;;;;;;;;5026789;28;20189;-85
2023/12/27 14:50:31;;;;;;;18.53;9.77;;;;;;;;;;5025957;28;20203;-87
2023/12/27 14:53:00;;;;;;;39.50;17.80;;;;;;;;;;5024326;28;20273;-85
2023/12/27 14:55:27;;;;;;;27.40;15.77;;;;;;;;;;5024826;28;20801;-84
2023/12/27 14:57:57;;;;;;;47.93;19.07;;;;;;;;;;5027582;28;20262;-85
2023/12/27 15:00:27;;;;;;;21.23;11.67;;;;;;;;;;5039835;28;20428;-86
2023/12/27 15:02:56;;;;;;;23.97;13.10;;;;;;;;;;5006143;28;20287;-85
2023/12/27 15:05:24;;;;;;;21.10;13.33;;;;;;;;;;5029806;28;20223;-86
2023/12/27 15:07:56;;;;;;;18.93;9.73;;;;;;;;;;5041373;28;20215;-88
2023/12/27 15:10:25;;;;;;;13.80;8.10;;;;;;;;;;5032218;28;20230;-85
2023/12/27 15:12:54;;;;;;;16.90;8.17;;;;;;;;;;5033295;28;20219;-85
2023/12/27 15:15:23;;;;;;;12.07;8.33;;;;;;;;;;5036148;28;20227;-85
2023/12/27 15:17:54;;;;;;;11.13;7.17;;;;;;;;;;5042807;28;20699;-85
2023/12/27 15:20:22;;;;;;;21.13;9.77;;;;;;;;;;5026493;28;20231;-86
2023/12/27 15:23:00;;;;;;;18.90;10.67;;;;;;;;;;5036447;28;20206;-85
2023/12/27 15:25:32;;;;;;;24.63;14.07;;;;;;;;;;5057626;28;20188;-86
2023/12/27 15:28:04;;;;;;;27.63;13.37;;;;;;;;;;5043702;28;20290;-84
2023/12/27 15:30:31;;;;;;;27.07;13.03;;;;;;;;;;5041030;28;20211;-84
2023/12/27 15:33:00;;;;;;;24.10;10.87;;;;;;;;;;5036045;28;20247;-87
2023/12/27 15:35:28;;;;;;;30.53;13.63;;;;;;;;;;5044335;28;20309;-85
2023/12/27 15:37:57;;;;;;;27.90;13.53;;;;;;;;;;5040012;28;20204;-84
2023/12/27 15:40:27;;;;;;;25.80;14.40;;;;;;;;;;5042831;28;20226;-84
2023/12/27 15:45:45;;;;;;;16.67;10.20;;;;;;;;;;5027522;28;20211;-84
2023/12/27 15:48:15;;;;;;;16.20;9.97;;;;;;;;;;5033330;28;20239;-86
2023/12/27 15:50:47;;;;;;;12.03;8.60;;;;;;;;;;5049275;28;20204;-85
2023/12/27 15:53:17;;;;;;;16.77;11.37;;;;;;;;;;5054992;28;20184;-86
2023/12/27 15:55:48;;;;;;;17.50;10.33;;;;;;;;;;5029131;28;20595;-86
2023/12/27 15:58:19;;;;;;;12.23;7.67;;;;;;;;;;5038672;28;20212;-85